Etusivu
METAR-TAF:

METAR-TAF

Lentoasemat :

Brainerd, Minnesota, Yhdysvallat

Leveyspiiri: 46-24-17N, Pituuspiiri: 094-07-51W, korkeus merenpinnasta: 373 m

Tämänhetkinen sää

Tämä raportti tehtiin 14 minuuttia sitten, kello 16.53 UTC
Tuuli 5 kn lännestä/lounaasta
Lämpötila 2°C
Kosteus 64%
Ilmanpaine 1020 hPa
Näkyvyys: 16.1 km
selkeää

METAR: KBRD 141653Z AUTO 24005KT 10SM CLR 02/M04 A3011 RMK AO2 SLP214 T00171044

Aika: 11:07 (17:07 UTC)

Sääennuste

Tämä raportti tehtiin 5 tuntia ja 42 minuuttia sitten, kello 11.25 UTC
Ennuste voimassa 14. päivästä klo 12 UTC - 15. päivään klo 12 UTC
Tuuli 8 kn lounaasta
Näkyvyys: 10 km
selkeää

TAF: KBRD 141125Z 1412/1512 22008KT P6SM SKC

Säähavainnot ja -ennusteet yli 4000 lentoasemalta (METAR- ja TAF-raportit).

Käytössä olevat sääasemat on merkitty karttaan keltaisilla ja punaisilla pisteillä.

Aseta hiiri pisteen päälle nähdäksesi sääaseman nimen.

Klikkaa sitten nähdäksesi säähavainnot ja -ennusteet.

Kartan vaihtaminen: klikkaa mustalla rastilla varustettuja vihreitä pisteitä, niin voit zoomata sisään; viivalla varustettua vihreää pistettä, niin voit zoomata ulos tai vihreitä nuolia, niin pääset viereisille kartoille.


METAR-TAF: